sensor_id;sensor_type;location;lat;lon;timestamp;temperature;humidity
6270;DHT22;3168;51.684;6.954;2023-02-28T00:00:41;-0.50;1.00
6270;DHT22;3168;51.684;6.954;2023-02-28T00:03:06;-0.70;1.00
6270;DHT22;3168;51.684;6.954;2023-02-28T00:05:32;-0.70;1.00
6270;DHT22;3168;51.684;6.954;2023-02-28T00:07:58;-0.80;1.00
6270;DHT22;3168;51.684;6.954;2023-02-28T00:10:25;-0.80;1.00
6270;DHT22;3168;51.684;6.954;2023-02-28T00:12:50;-0.80;1.00
6270;DHT22;3168;51.684;6.954;2023-02-28T00:15:16;-0.80;1.00
6270;DHT22;3168;51.684;6.954;2023-02-28T00:17:41;-0.80;1.00
6270;DHT22;3168;51.684;6.954;2023-02-28T00:20:08;-0.90;1.00
6270;DHT22;3168;51.684;6.954;2023-02-28T00:22:34;-0.80;1.00
6270;DHT22;3168;51.684;6.954;2023-02-28T00:25:00;-0.80;1.00
6270;DHT22;3168;51.684;6.954;2023-02-28T00:27:26;-0.90;1.00
6270;DHT22;3168;51.684;6.954;2023-02-28T00:29:51;-0.90;1.00
6270;DHT22;3168;51.684;6.954;2023-02-28T00:32:17;-1.00;1.00
6270;DHT22;3168;51.684;6.954;2023-02-28T00:34:43;-1.00;1.00
6270;DHT22;3168;51.684;6.954;2023-02-28T00:37:09;-1.10;1.00
6270;DHT22;3168;51.684;6.954;2023-02-28T00:39:35;-1.10;1.00
6270;DHT22;3168;51.684;6.954;2023-02-28T00:42:00;-1.10;1.00
6270;DHT22;3168;51.684;6.954;2023-02-28T00:44:26;-1.10;1.00
6270;DHT22;3168;51.684;6.954;2023-02-28T00:46:52;-1.10;1.00
6270;DHT22;3168;51.684;6.954;2023-02-28T00:49:18;-1.20;1.00
6270;DHT22;3168;51.684;6.954;2023-02-28T00:51:43;-1.20;1.00
6270;DHT22;3168;51.684;6.954;2023-02-28T00:54:09;-1.10;1.00
6270;DHT22;3168;51.684;6.954;2023-02-28T00:56:35;-1.10;1.00
6270;DHT22;3168;51.684;6.954;2023-02-28T00:59:01;-1.10;1.00
6270;DHT22;3168;51.684;6.954;2023-02-28T01:01:27;-1.10;1.00
6270;DHT22;3168;51.684;6.954;2023-02-28T01:03:52;-1.10;1.00
6270;DHT22;3168;51.684;6.954;2023-02-28T01:06:18;-1.10;1.00
6270;DHT22;3168;51.684;6.954;2023-02-28T01:08:44;-1.10;1.00
6270;DHT22;3168;51.684;6.954;2023-02-28T01:11:11;-1.10;1.00
6270;DHT22;3168;51.684;6.954;2023-02-28T01:13:36;-1.10;1.00
6270;DHT22;3168;51.684;6.954;2023-02-28T01:16:01;-1.10;1.00
6270;DHT22;3168;51.684;6.954;2023-02-28T01:18:27;-1.20;1.00
6270;DHT22;3168;51.684;6.954;2023-02-28T01:20:53;-1.10;1.00
6270;DHT22;3168;51.684;6.954;2023-02-28T01:23:20;-1.10;1.00
6270;DHT22;3168;51.684;6.954;2023-02-28T01:25:45;-1.10;1.00
6270;DHT22;3168;51.684;6.954;2023-02-28T01:28:10;-1.00;1.00
6270;DHT22;3168;51.684;6.954;2023-02-28T01:30:36;-1.10;1.00
6270;DHT22;3168;51.684;6.954;2023-02-28T01:33:02;-1.10;1.00
6270;DHT22;3168;51.684;6.954;2023-02-28T01:35:28;-1.10;1.00
6270;DHT22;3168;51.684;6.954;2023-02-28T01:37:54;-1.10;1.00
6270;DHT22;3168;51.684;6.954;2023-02-28T01:40:19;-1.10;1.00
6270;DHT22;3168;51.684;6.954;2023-02-28T01:42:45;-1.20;1.00
6270;DHT22;3168;51.684;6.954;2023-02-28T01:45:22;-1.30;1.00
6270;DHT22;3168;51.684;6.954;2023-02-28T01:47:46;-1.30;1.00
6270;DHT22;3168;51.684;6.954;2023-02-28T01:50:14;-1.40;1.00
6270;DHT22;3168;51.684;6.954;2023-02-28T01:52:38;-1.30;1.00
6270;DHT22;3168;51.684;6.954;2023-02-28T01:55:04;-1.40;1.00
6270;DHT22;3168;51.684;6.954;2023-02-28T01:57:32;-1.40;1.00
6270;DHT22;3168;51.684;6.954;2023-02-28T01:59:58;-1.40;1.00
6270;DHT22;3168;51.684;6.954;2023-02-28T02:02:23;-1.50;1.00
6270;DHT22;3168;51.684;6.954;2023-02-28T02:04:55;-1.50;1.00
6270;DHT22;3168;51.684;6.954;2023-02-28T02:07:20;-1.60;1.00
6270;DHT22;3168;51.684;6.954;2023-02-28T02:09:45;-1.50;1.00
6270;DHT22;3168;51.684;6.954;2023-02-28T02:12:24;-1.60;1.00
6270;DHT22;3168;51.684;6.954;2023-02-28T02:15:05;-1.60;1.00
6270;DHT22;3168;51.684;6.954;2023-02-28T02:17:39;-1.70;1.00
6270;DHT22;3168;51.684;6.954;2023-02-28T02:23:12;-1.80;1.00
6270;DHT22;3168;51.684;6.954;2023-02-28T02:25:41;-1.80;1.00
6270;DHT22;3168;51.684;6.954;2023-02-28T02:28:22;-1.80;1.00
6270;DHT22;3168;51.684;6.954;2023-02-28T02:31:05;-1.80;1.00
6270;DHT22;3168;51.684;6.954;2023-02-28T02:33:38;-1.80;1.00
6270;DHT22;3168;51.684;6.954;2023-02-28T02:36:03;-1.80;1.00
6270;DHT22;3168;51.684;6.954;2023-02-28T02:38:35;-1.90;1.00
6270;DHT22;3168;51.684;6.954;2023-02-28T02:41:07;-1.90;1.00
6270;DHT22;3168;51.684;6.954;2023-02-28T02:43:33;-1.90;1.00
6270;DHT22;3168;51.684;6.954;2023-02-28T02:45:59;-1.90;1.00
6270;DHT22;3168;51.684;6.954;2023-02-28T02:48:26;-1.90;1.00
6270;DHT22;3168;51.684;6.954;2023-02-28T02:50:54;-2.00;1.00
6270;DHT22;3168;51.684;6.954;2023-02-28T02:53:18;-2.00;1.00
6270;DHT22;3168;51.684;6.954;2023-02-28T02:55:43;-2.10;1.00
6270;DHT22;3168;51.684;6.954;2023-02-28T02:58:10;-2.10;1.00
6270;DHT22;3168;51.684;6.954;2023-02-28T03:00:36;-2.20;1.00
6270;DHT22;3168;51.684;6.954;2023-02-28T03:03:00;-2.20;1.00
6270;DHT22;3168;51.684;6.954;2023-02-28T03:05:27;-2.20;1.00
6270;DHT22;3168;51.684;6.954;2023-02-28T03:07:52;-2.20;1.00
6270;DHT22;3168;51.684;6.954;2023-02-28T03:10:27;-2.20;1.00
6270;DHT22;3168;51.684;6.954;2023-02-28T03:12:54;-2.20;1.00
6270;DHT22;3168;51.684;6.954;2023-02-28T03:15:26;-2.20;1.00
6270;DHT22;3168;51.684;6.954;2023-02-28T03:18:02;-2.30;1.00
6270;DHT22;3168;51.684;6.954;2023-02-28T03:20:47;-2.30;1.00
6270;DHT22;3168;51.684;6.954;2023-02-28T03:23:16;-2.30;1.00
6270;DHT22;3168;51.684;6.954;2023-02-28T03:25:46;-2.30;1.00
6270;DHT22;3168;51.684;6.954;2023-02-28T03:28:11;-2.40;1.00
6270;DHT22;3168;51.684;6.954;2023-02-28T03:30:38;-2.50;1.00
6270;DHT22;3168;51.684;6.954;2023-02-28T03:33:08;-2.60;1.00
6270;DHT22;3168;51.684;6.954;2023-02-28T03:35:34;-2.70;1.00
6270;DHT22;3168;51.684;6.954;2023-02-28T03:38:18;-2.70;1.00
6270;DHT22;3168;51.684;6.954;2023-02-28T03:40:44;-2.70;1.00
6270;DHT22;3168;51.684;6.954;2023-02-28T03:43:09;-2.70;1.00
6270;DHT22;3168;51.684;6.954;2023-02-28T03:45:35;-2.60;1.00
6270;DHT22;3168;51.684;6.954;2023-02-28T03:48:02;-2.50;1.00
6270;DHT22;3168;51.684;6.954;2023-02-28T03:50:34;-2.50;1.00
6270;DHT22;3168;51.684;6.954;2023-02-28T03:53:01;-2.60;1.00
6270;DHT22;3168;51.684;6.954;2023-02-28T03:55:26;-2.60;1.00
6270;DHT22;3168;51.684;6.954;2023-02-28T03:57:57;-2.60;1.00
6270;DHT22;3168;51.684;6.954;2023-02-28T04:00:30;-2.50;1.00
6270;DHT22;3168;51.684;6.954;2023-02-28T04:02:54;-2.50;1.00
6270;DHT22;3168;51.684;6.954;2023-02-28T04:05:20;-2.60;1.00
6270;DHT22;3168;51.684;6.954;2023-02-28T04:07:46;-2.70;1.00
6270;DHT22;3168;51.684;6.954;2023-02-28T04:10:12;-2.70;1.00
6270;DHT22;3168;51.684;6.954;2023-02-28T04:12:37;-2.70;1.00
6270;DHT22;3168;51.684;6.954;2023-02-28T04:15:04;-2.70;1.00
6270;DHT22;3168;51.684;6.954;2023-02-28T04:17:30;-2.70;1.00
6270;DHT22;3168;51.684;6.954;2023-02-28T04:19:56;-2.70;1.00
6270;DHT22;3168;51.684;6.954;2023-02-28T04:22:22;-2.70;1.00
6270;DHT22;3168;51.684;6.954;2023-02-28T04:24:47;-2.60;1.00
6270;DHT22;3168;51.684;6.954;2023-02-28T04:27:13;-2.70;1.00
6270;DHT22;3168;51.684;6.954;2023-02-28T04:29:39;-2.70;1.00
6270;DHT22;3168;51.684;6.954;2023-02-28T04:32:05;-2.70;1.00
6270;DHT22;3168;51.684;6.954;2023-02-28T04:34:31;-2.70;1.00
6270;DHT22;3168;51.684;6.954;2023-02-28T04:36:57;-2.60;1.00
6270;DHT22;3168;51.684;6.954;2023-02-28T04:39:23;-2.70;1.00
6270;DHT22;3168;51.684;6.954;2023-02-28T04:41:48;-2.70;1.00
6270;DHT22;3168;51.684;6.954;2023-02-28T04:44:14;-2.70;1.00
6270;DHT22;3168;51.684;6.954;2023-02-28T04:46:40;-2.70;1.00
6270;DHT22;3168;51.684;6.954;2023-02-28T04:49:06;-2.70;1.00
6270;DHT22;3168;51.684;6.954;2023-02-28T04:51:31;-2.70;1.00
6270;DHT22;3168;51.684;6.954;2023-02-28T04:53:57;-2.80;1.00
6270;DHT22;3168;51.684;6.954;2023-02-28T04:56:23;-2.80;1.00
6270;DHT22;3168;51.684;6.954;2023-02-28T04:58:49;-2.80;1.00
6270;DHT22;3168;51.684;6.954;2023-02-28T05:01:20;-2.80;1.00
6270;DHT22;3168;51.684;6.954;2023-02-28T05:03:44;-2.80;1.00
6270;DHT22;3168;51.684;6.954;2023-02-28T05:06:10;-2.90;1.00
6270;DHT22;3168;51.684;6.954;2023-02-28T05:08:36;-2.90;1.00
6270;DHT22;3168;51.684;6.954;2023-02-28T05:11:02;-3.00;1.00
6270;DHT22;3168;51.684;6.954;2023-02-28T05:13:28;-3.00;1.00
6270;DHT22;3168;51.684;6.954;2023-02-28T05:15:54;-3.00;1.00
6270;DHT22;3168;51.684;6.954;2023-02-28T05:18:20;-3.00;1.00
6270;DHT22;3168;51.684;6.954;2023-02-28T05:20:45;-2.90;1.00
6270;DHT22;3168;51.684;6.954;2023-02-28T05:23:12;-3.00;1.00
6270;DHT22;3168;51.684;6.954;2023-02-28T05:25:37;-3.00;1.00
6270;DHT22;3168;51.684;6.954;2023-02-28T05:28:03;-3.00;1.00
6270;DHT22;3168;51.684;6.954;2023-02-28T05:30:29;-3.10;1.00
6270;DHT22;3168;51.684;6.954;2023-02-28T05:32:55;-3.10;1.00
6270;DHT22;3168;51.684;6.954;2023-02-28T05:35:20;-3.00;1.00
6270;DHT22;3168;51.684;6.954;2023-02-28T05:37:46;-3.10;1.00
6270;DHT22;3168;51.684;6.954;2023-02-28T05:40:12;-3.10;1.00
6270;DHT22;3168;51.684;6.954;2023-02-28T05:42:38;-3.10;1.00
6270;DHT22;3168;51.684;6.954;2023-02-28T05:45:05;-3.20;1.00
6270;DHT22;3168;51.684;6.954;2023-02-28T05:47:30;-3.20;1.00
6270;DHT22;3168;51.684;6.954;2023-02-28T05:49:56;-3.20;1.00
6270;DHT22;3168;51.684;6.954;2023-02-28T05:52:22;-3.10;1.00
6270;DHT22;3168;51.684;6.954;2023-02-28T05:54:48;-3.20;1.00
6270;DHT22;3168;51.684;6.954;2023-02-28T05:57:14;-3.20;1.00
6270;DHT22;3168;51.684;6.954;2023-02-28T05:59:40;-3.20;1.00
6270;DHT22;3168;51.684;6.954;2023-02-28T06:02:06;-3.30;1.00
6270;DHT22;3168;51.684;6.954;2023-02-28T06:04:31;-3.30;1.00
6270;DHT22;3168;51.684;6.954;2023-02-28T06:06:57;-3.40;1.00
6270;DHT22;3168;51.684;6.954;2023-02-28T06:09:23;-3.40;1.00
6270;DHT22;3168;51.684;6.954;2023-02-28T06:11:49;-3.50;1.00
6270;DHT22;3168;51.684;6.954;2023-02-28T06:14:15;-3.50;1.00
6270;DHT22;3168;51.684;6.954;2023-02-28T06:16:40;-3.50;1.00
6270;DHT22;3168;51.684;6.954;2023-02-28T06:19:06;-3.50;1.00
6270;DHT22;3168;51.684;6.954;2023-02-28T06:21:32;-3.50;1.00
6270;DHT22;3168;51.684;6.954;2023-02-28T06:23:58;-3.50;1.00
6270;DHT22;3168;51.684;6.954;2023-02-28T06:26:24;-3.40;1.00
6270;DHT22;3168;51.684;6.954;2023-02-28T06:28:49;-3.40;1.00
6270;DHT22;3168;51.684;6.954;2023-02-28T06:31:16;-3.40;1.00
6270;DHT22;3168;51.684;6.954;2023-02-28T06:33:41;-3.30;1.00
6270;DHT22;3168;51.684;6.954;2023-02-28T06:36:07;-3.30;1.00
6270;DHT22;3168;51.684;6.954;2023-02-28T06:38:33;-3.30;1.00
6270;DHT22;3168;51.684;6.954;2023-02-28T06:41:00;-3.30;1.00
6270;DHT22;3168;51.684;6.954;2023-02-28T06:43:25;-3.30;1.00
6270;DHT22;3168;51.684;6.954;2023-02-28T06:45:54;-3.30;1.00
6270;DHT22;3168;51.684;6.954;2023-02-28T06:48:16;-3.20;1.00
6270;DHT22;3168;51.684;6.954;2023-02-28T06:50:42;-3.20;1.00
6270;DHT22;3168;51.684;6.954;2023-02-28T06:53:08;-3.10;1.00
6270;DHT22;3168;51.684;6.954;2023-02-28T06:55:34;-3.20;1.00
6270;DHT22;3168;51.684;6.954;2023-02-28T06:58:00;-3.10;1.00
6270;DHT22;3168;51.684;6.954;2023-02-28T07:00:26;-3.10;1.00
6270;DHT22;3168;51.684;6.954;2023-02-28T07:02:51;-3.10;1.00
6270;DHT22;3168;51.684;6.954;2023-02-28T07:05:17;-3.00;1.00
6270;DHT22;3168;51.684;6.954;2023-02-28T07:07:43;-3.00;1.00
6270;DHT22;3168;51.684;6.954;2023-02-28T07:10:10;-3.00;1.00
6270;DHT22;3168;51.684;6.954;2023-02-28T07:12:36;-2.90;1.00
6270;DHT22;3168;51.684;6.954;2023-02-28T07:15:02;-2.90;1.00
6270;DHT22;3168;51.684;6.954;2023-02-28T07:17:28;-2.90;1.00
6270;DHT22;3168;51.684;6.954;2023-02-28T07:19:53;-3.00;1.00
6270;DHT22;3168;51.684;6.954;2023-02-28T07:22:19;-2.90;1.00
6270;DHT22;3168;51.684;6.954;2023-02-28T07:24:45;-2.70;1.00
6270;DHT22;3168;51.684;6.954;2023-02-28T07:27:11;-2.70;1.00
6270;DHT22;3168;51.684;6.954;2023-02-28T07:29:37;-2.60;1.00
6270;DHT22;3168;51.684;6.954;2023-02-28T07:32:03;-2.40;1.00
6270;DHT22;3168;51.684;6.954;2023-02-28T07:34:28;-2.30;1.00
6270;DHT22;3168;51.684;6.954;2023-02-28T07:36:54;-2.10;1.00
6270;DHT22;3168;51.684;6.954;2023-02-28T07:39:21;-2.00;1.00
6270;DHT22;3168;51.684;6.954;2023-02-28T07:41:46;-1.90;1.00
6270;DHT22;3168;51.684;6.954;2023-02-28T07:44:12;-1.80;1.00
6270;DHT22;3168;51.684;6.954;2023-02-28T07:46:38;-1.70;1.00
6270;DHT22;3168;51.684;6.954;2023-02-28T07:49:03;-1.60;1.00
6270;DHT22;3168;51.684;6.954;2023-02-28T07:51:29;-1.50;1.00
6270;DHT22;3168;51.684;6.954;2023-02-28T07:53:55;-1.40;1.00
6270;DHT22;3168;51.684;6.954;2023-02-28T07:56:21;-1.30;1.00
6270;DHT22;3168;51.684;6.954;2023-02-28T07:58:46;-1.20;1.00
6270;DHT22;3168;51.684;6.954;2023-02-28T08:01:13;-1.10;1.00
6270;DHT22;3168;51.684;6.954;2023-02-28T08:03:39;-0.90;1.00
6270;DHT22;3168;51.684;6.954;2023-02-28T08:06:05;-0.80;1.00
6270;DHT22;3168;51.684;6.954;2023-02-28T08:08:30;-0.70;1.00
6270;DHT22;3168;51.684;6.954;2023-02-28T08:11:01;-0.60;1.00
6270;DHT22;3168;51.684;6.954;2023-02-28T08:13:26;-0.50;1.00
6270;DHT22;3168;51.684;6.954;2023-02-28T08:15:52;-0.40;1.00
6270;DHT22;3168;51.684;6.954;2023-02-28T08:18:18;-0.30;1.00
6270;DHT22;3168;51.684;6.954;2023-02-28T08:20:43;-0.20;1.00
6270;DHT22;3168;51.684;6.954;2023-02-28T08:23:09;0.10;1.00
6270;DHT22;3168;51.684;6.954;2023-02-28T08:25:35;0.20;1.00
6270;DHT22;3168;51.684;6.954;2023-02-28T08:28:01;0.20;1.00
6270;DHT22;3168;51.684;6.954;2023-02-28T08:30:27;0.30;1.00
6270;DHT22;3168;51.684;6.954;2023-02-28T08:32:52;0.40;1.00
6270;DHT22;3168;51.684;6.954;2023-02-28T08:35:18;0.40;1.00
6270;DHT22;3168;51.684;6.954;2023-02-28T08:37:44;0.60;1.00
6270;DHT22;3168;51.684;6.954;2023-02-28T08:40:10;0.80;1.00
6270;DHT22;3168;51.684;6.954;2023-02-28T08:42:36;0.80;1.00
6270;DHT22;3168;51.684;6.954;2023-02-28T08:45:03;0.90;1.00
6270;DHT22;3168;51.684;6.954;2023-02-28T08:47:28;1.00;1.00
6270;DHT22;3168;51.684;6.954;2023-02-28T08:49:54;1.10;1.00
6270;DHT22;3168;51.684;6.954;2023-02-28T08:52:20;1.20;1.00
6270;DHT22;3168;51.684;6.954;2023-02-28T08:54:46;1.30;1.00
6270;DHT22;3168;51.684;6.954;2023-02-28T08:57:12;1.40;1.00
6270;DHT22;3168;51.684;6.954;2023-02-28T08:59:38;1.40;1.00
6270;DHT22;3168;51.684;6.954;2023-02-28T09:02:04;1.60;1.00
6270;DHT22;3168;51.684;6.954;2023-02-28T09:04:29;1.70;1.00
6270;DHT22;3168;51.684;6.954;2023-02-28T09:06:56;1.80;1.00
6270;DHT22;3168;51.684;6.954;2023-02-28T09:09:22;1.90;1.00
6270;DHT22;3168;51.684;6.954;2023-02-28T09:11:48;2.00;1.00
6270;DHT22;3168;51.684;6.954;2023-02-28T09:14:14;2.10;1.00
6270;DHT22;3168;51.684;6.954;2023-02-28T09:16:39;2.20;1.00
6270;DHT22;3168;51.684;6.954;2023-02-28T09:19:05;2.20;1.00
6270;DHT22;3168;51.684;6.954;2023-02-28T09:21:31;2.40;1.00
6270;DHT22;3168;51.684;6.954;2023-02-28T09:23:57;2.50;1.00
6270;DHT22;3168;51.684;6.954;2023-02-28T09:26:24;2.60;1.00
6270;DHT22;3168;51.684;6.954;2023-02-28T09:28:49;2.70;1.00
6270;DHT22;3168;51.684;6.954;2023-02-28T09:31:16;2.80;1.00
6270;DHT22;3168;51.684;6.954;2023-02-28T09:33:40;2.80;1.00
6270;DHT22;3168;51.684;6.954;2023-02-28T09:36:07;2.90;1.00
6270;DHT22;3168;51.684;6.954;2023-02-28T09:38:32;3.00;1.00
6270;DHT22;3168;51.684;6.954;2023-02-28T09:41:00;3.00;1.00
6270;DHT22;3168;51.684;6.954;2023-02-28T09:43:25;3.10;1.00
6270;DHT22;3168;51.684;6.954;2023-02-28T09:45:51;3.10;1.00
6270;DHT22;3168;51.684;6.954;2023-02-28T09:48:18;3.20;1.00
6270;DHT22;3168;51.684;6.954;2023-02-28T09:50:46;3.20;1.00
6270;DHT22;3168;51.684;6.954;2023-02-28T09:53:19;3.30;1.00
6270;DHT22;3168;51.684;6.954;2023-02-28T09:55:46;3.30;1.00
6270;DHT22;3168;51.684;6.954;2023-02-28T09:58:15;3.30;1.00
6270;DHT22;3168;51.684;6.954;2023-02-28T10:00:39;3.40;1.00
6270;DHT22;3168;51.684;6.954;2023-02-28T10:05:41;3.30;1.00
6270;DHT22;3168;51.684;6.954;2023-02-28T10:08:11;3.30;1.00
6270;DHT22;3168;51.684;6.954;2023-02-28T10:10:40;3.30;1.00
6270;DHT22;3168;51.684;6.954;2023-02-28T10:13:06;3.50;1.00
6270;DHT22;3168;51.684;6.954;2023-02-28T10:15:31;3.40;1.00
6270;DHT22;3168;51.684;6.954;2023-02-28T10:17:58;3.40;1.00
6270;DHT22;3168;51.684;6.954;2023-02-28T10:20:22;3.50;1.00
6270;DHT22;3168;51.684;6.954;2023-02-28T10:22:52;3.60;1.00
6270;DHT22;3168;51.684;6.954;2023-02-28T10:25:17;3.70;1.00
6270;DHT22;3168;51.684;6.954;2023-02-28T10:27:41;3.80;1.00
6270;DHT22;3168;51.684;6.954;2023-02-28T10:30:09;3.70;1.00
6270;DHT22;3168;51.684;6.954;2023-02-28T10:32:33;3.70;1.00
6270;DHT22;3168;51.684;6.954;2023-02-28T10:35:10;3.80;1.00
6270;DHT22;3168;51.684;6.954;2023-02-28T10:37:37;3.70;1.00
6270;DHT22;3168;51.684;6.954;2023-02-28T10:40:03;3.70;1.00
6270;DHT22;3168;51.684;6.954;2023-02-28T10:42:29;3.70;1.00
6270;DHT22;3168;51.684;6.954;2023-02-28T10:45:04;3.70;1.00
6270;DHT22;3168;51.684;6.954;2023-02-28T10:47:30;3.80;1.00
6270;DHT22;3168;51.684;6.954;2023-02-28T10:49:55;3.90;1.00
6270;DHT22;3168;51.684;6.954;2023-02-28T10:52:38;4.00;1.00
6270;DHT22;3168;51.684;6.954;2023-02-28T10:55:15;3.90;1.00
6270;DHT22;3168;51.684;6.954;2023-02-28T10:57:40;4.10;1.00
6270;DHT22;3168;51.684;6.954;2023-02-28T11:00:14;4.00;1.00
6270;DHT22;3168;51.684;6.954;2023-02-28T11:02:34;4.10;1.00
6270;DHT22;3168;51.684;6.954;2023-02-28T11:04:59;4.20;1.00
6270;DHT22;3168;51.684;6.954;2023-02-28T11:07:27;4.20;1.00
6270;DHT22;3168;51.684;6.954;2023-02-28T11:09:53;4.10;1.00
6270;DHT22;3168;51.684;6.954;2023-02-28T11:12:26;3.90;1.00
6270;DHT22;3168;51.684;6.954;2023-02-28T11:14:53;3.80;1.00
6270;DHT22;3168;51.684;6.954;2023-02-28T11:17:21;3.90;1.00
6270;DHT22;3168;51.684;6.954;2023-02-28T11:19:47;4.10;1.00
6270;DHT22;3168;51.684;6.954;2023-02-28T11:22:15;4.50;1.00
6270;DHT22;3168;51.684;6.954;2023-02-28T11:24:41;4.50;1.00
6270;DHT22;3168;51.684;6.954;2023-02-28T11:27:03;4.40;1.00
6270;DHT22;3168;51.684;6.954;2023-02-28T11:29:30;4.50;1.00
6270;DHT22;3168;51.684;6.954;2023-02-28T11:32:07;4.60;1.00
6270;DHT22;3168;51.684;6.954;2023-02-28T11:34:30;4.60;1.00
6270;DHT22;3168;51.684;6.954;2023-02-28T11:36:56;4.60;1.00
6270;DHT22;3168;51.684;6.954;2023-02-28T11:39:22;4.70;1.00
6270;DHT22;3168;51.684;6.954;2023-02-28T11:41:54;4.60;1.00
6270;DHT22;3168;51.684;6.954;2023-02-28T11:47:12;4.50;1.00
6270;DHT22;3168;51.684;6.954;2023-02-28T11:50:11;4.50;1.00
6270;DHT22;3168;51.684;6.954;2023-02-28T11:52:45;4.50;1.00
6270;DHT22;3168;51.684;6.954;2023-02-28T11:55:14;4.50;1.00
6270;DHT22;3168;51.684;6.954;2023-02-28T11:57:57;4.50;1.00
6270;DHT22;3168;51.684;6.954;2023-02-28T12:03:29;4.40;1.00
6270;DHT22;3168;51.684;6.954;2023-02-28T12:06:09;4.50;1.00
6270;DHT22;3168;51.684;6.954;2023-02-28T12:08:42;4.60;1.00
6270;DHT22;3168;51.684;6.954;2023-02-28T12:11:22;4.70;1.00
6270;DHT22;3168;51.684;6.954;2023-02-28T12:13:54;4.70;1.00
6270;DHT22;3168;51.684;6.954;2023-02-28T12:16:20;4.70;1.00
6270;DHT22;3168;51.684;6.954;2023-02-28T12:18:53;4.70;1.00
6270;DHT22;3168;51.684;6.954;2023-02-28T12:24:00;4.80;1.00
6270;DHT22;3168;51.684;6.954;2023-02-28T12:26:42;4.90;1.00
6270;DHT22;3168;51.684;6.954;2023-02-28T12:29:25;4.90;1.00
6270;DHT22;3168;51.684;6.954;2023-02-28T12:31:51;4.90;1.00
6270;DHT22;3168;51.684;6.954;2023-02-28T12:34:18;4.90;1.00
6270;DHT22;3168;51.684;6.954;2023-02-28T12:36:42;4.80;1.00
6270;DHT22;3168;51.684;6.954;2023-02-28T12:39:10;5.00;1.00
6270;DHT22;3168;51.684;6.954;2023-02-28T12:41:39;5.00;1.00
6270;DHT22;3168;51.684;6.954;2023-02-28T12:44:04;5.00;1.00
6270;DHT22;3168;51.684;6.954;2023-02-28T12:46:44;4.90;1.00
6270;DHT22;3168;51.684;6.954;2023-02-28T12:49:12;5.00;1.00
6270;DHT22;3168;51.684;6.954;2023-02-28T12:51:36;5.00;1.00
6270;DHT22;3168;51.684;6.954;2023-02-28T12:54:23;5.20;1.00
6270;DHT22;3168;51.684;6.954;2023-02-28T12:56:53;5.20;1.00
6270;DHT22;3168;51.684;6.954;2023-02-28T12:59:34;5.30;1.00
6270;DHT22;3168;51.684;6.954;2023-02-28T13:02:02;5.30;1.00
6270;DHT22;3168;51.684;6.954;2023-02-28T13:07:08;5.20;1.00
6270;DHT22;3168;51.684;6.954;2023-02-28T13:09:30;5.30;1.00
6270;DHT22;3168;51.684;6.954;2023-02-28T13:11:56;5.20;1.00
6270;DHT22;3168;51.684;6.954;2023-02-28T13:14:30;5.10;1.00
6270;DHT22;3168;51.684;6.954;2023-02-28T13:16:59;5.10;1.00
6270;DHT22;3168;51.684;6.954;2023-02-28T13:19:24;5.10;1.00
6270;DHT22;3168;51.684;6.954;2023-02-28T13:21:49;5.20;1.00
6270;DHT22;3168;51.684;6.954;2023-02-28T13:24:39;5.30;1.00
6270;DHT22;3168;51.684;6.954;2023-02-28T13:27:33;5.10;1.00
6270;DHT22;3168;51.684;6.954;2023-02-28T13:29:58;5.20;1.00
6270;DHT22;3168;51.684;6.954;2023-02-28T13:32:29;5.20;1.00
6270;DHT22;3168;51.684;6.954;2023-02-28T13:35:12;5.20;1.00
6270;DHT22;3168;51.684;6.954;2023-02-28T13:37:42;5.30;1.00
6270;DHT22;3168;51.684;6.954;2023-02-28T13:40:26;5.20;1.00
6270;DHT22;3168;51.684;6.954;2023-02-28T13:42:50;5.20;1.00
6270;DHT22;3168;51.684;6.954;2023-02-28T13:45:20;5.10;1.00
6270;DHT22;3168;51.684;6.954;2023-02-28T13:47:51;5.30;1.00
6270;DHT22;3168;51.684;6.954;2023-02-28T13:50:29;5.20;1.00
6270;DHT22;3168;51.684;6.954;2023-02-28T13:53:02;5.30;1.00
6270;DHT22;3168;51.684;6.954;2023-02-28T13:55:29;5.30;1.00
6270;DHT22;3168;51.684;6.954;2023-02-28T13:59:06;5.30;1.00
6270;DHT22;3168;51.684;6.954;2023-02-28T14:03:37;5.30;1.00
6270;DHT22;3168;51.684;6.954;2023-02-28T14:06:16;5.40;1.00
6270;DHT22;3168;51.684;6.954;2023-02-28T14:08:49;5.40;1.00
6270;DHT22;3168;51.684;6.954;2023-02-28T14:11:24;5.40;1.00
6270;DHT22;3168;51.684;6.954;2023-02-28T14:13:41;5.40;1.00
6270;DHT22;3168;51.684;6.954;2023-02-28T14:16:10;5.50;1.00
6270;DHT22;3168;51.684;6.954;2023-02-28T14:18:36;5.40;1.00
6270;DHT22;3168;51.684;6.954;2023-02-28T14:21:09;5.40;1.00
6270;DHT22;3168;51.684;6.954;2023-02-28T14:23:44;5.40;1.00
6270;DHT22;3168;51.684;6.954;2023-02-28T14:26:13;5.30;1.00
6270;DHT22;3168;51.684;6.954;2023-02-28T14:28:45;5.30;1.00
6270;DHT22;3168;51.684;6.954;2023-02-28T14:31:28;5.30;1.00
6270;DHT22;3168;51.684;6.954;2023-02-28T14:34:36;5.40;1.00
6270;DHT22;3168;51.684;6.954;2023-02-28T14:36:41;5.40;1.00
6270;DHT22;3168;51.684;6.954;2023-02-28T14:39:11;5.50;1.00
6270;DHT22;3168;51.684;6.954;2023-02-28T14:41:34;5.60;1.00
6270;DHT22;3168;51.684;6.954;2023-02-28T14:44:01;5.60;1.00
6270;DHT22;3168;51.684;6.954;2023-02-28T14:46:42;5.60;1.00
6270;DHT22;3168;51.684;6.954;2023-02-28T14:49:13;5.50;1.00
6270;DHT22;3168;51.684;6.954;2023-02-28T14:51:38;5.50;1.00
6270;DHT22;3168;51.684;6.954;2023-02-28T14:54:04;5.50;1.00
6270;DHT22;3168;51.684;6.954;2023-02-28T14:56:35;5.50;1.00
6270;DHT22;3168;51.684;6.954;2023-02-28T14:58:59;5.60;1.00
6270;DHT22;3168;51.684;6.954;2023-02-28T15:01:25;5.60;1.00
6270;DHT22;3168;51.684;6.954;2023-02-28T15:03:57;5.60;1.00
6270;DHT22;3168;51.684;6.954;2023-02-28T15:06:22;5.70;1.00
6270;DHT22;3168;51.684;6.954;2023-02-28T15:08:48;5.80;1.00
6270;DHT22;3168;51.684;6.954;2023-02-28T15:11:16;5.80;1.00
6270;DHT22;3168;51.684;6.954;2023-02-28T15:13:43;5.90;1.00
6270;DHT22;3168;51.684;6.954;2023-02-28T15:16:10;6.30;1.00
6270;DHT22;3168;51.684;6.954;2023-02-28T15:18:44;6.20;1.00
6270;DHT22;3168;51.684;6.954;2023-02-28T15:21:22;6.60;1.00
6270;DHT22;3168;51.684;6.954;2023-02-28T15:23:53;6.40;1.00
6270;DHT22;3168;51.684;6.954;2023-02-28T15:26:19;6.30;1.00
6270;DHT22;3168;51.684;6.954;2023-02-28T15:28:44;6.60;1.00
6270;DHT22;3168;51.684;6.954;2023-02-28T15:31:18;6.50;1.00
6270;DHT22;3168;51.684;6.954;2023-02-28T15:33:51;6.40;1.00
6270;DHT22;3168;51.684;6.954;2023-02-28T15:36:14;6.40;1.00
6270;DHT22;3168;51.684;6.954;2023-02-28T15:38:39;6.30;1.00
6270;DHT22;3168;51.684;6.954;2023-02-28T15:41:04;6.50;1.00
6270;DHT22;3168;51.684;6.954;2023-02-28T15:43:32;6.60;1.00
6270;DHT22;3168;51.684;6.954;2023-02-28T15:46:01;6.90;1.00
6270;DHT22;3168;51.684;6.954;2023-02-28T15:48:28;6.70;1.00
6270;DHT22;3168;51.684;6.954;2023-02-28T15:50:55;6.60;1.00
6270;DHT22;3168;51.684;6.954;2023-02-28T15:53:21;6.50;1.00
6270;DHT22;3168;51.684;6.954;2023-02-28T15:55:45;6.60;1.00
6270;DHT22;3168;51.684;6.954;2023-02-28T15:58:11;6.60;1.00
6270;DHT22;3168;51.684;6.954;2023-02-28T16:00:36;6.40;1.00
6270;DHT22;3168;51.684;6.954;2023-02-28T16:03:22;6.50;1.00
6270;DHT22;3168;51.684;6.954;2023-02-28T16:05:29;6.50;1.00
6270;DHT22;3168;51.684;6.954;2023-02-28T16:07:56;6.40;1.00
6270;DHT22;3168;51.684;6.954;2023-02-28T16:10:21;6.30;1.00
6270;DHT22;3168;51.684;6.954;2023-02-28T16:12:47;6.20;1.00
6270;DHT22;3168;51.684;6.954;2023-02-28T16:15:17;6.10;1.00
6270;DHT22;3168;51.684;6.954;2023-02-28T16:17:42;6.00;1.00
6270;DHT22;3168;51.684;6.954;2023-02-28T16:20:17;5.70;1.00
6270;DHT22;3168;51.684;6.954;2023-02-28T16:22:42;5.80;1.00
6270;DHT22;3168;51.684;6.954;2023-02-28T16:25:11;5.90;1.00
6270;DHT22;3168;51.684;6.954;2023-02-28T16:27:35;6.00;1.00
6270;DHT22;3168;51.684;6.954;2023-02-28T16:30:00;5.90;1.00
6270;DHT22;3168;51.684;6.954;2023-02-28T16:32:25;5.80;1.00
6270;DHT22;3168;51.684;6.954;2023-02-28T16:34:51;5.60;1.00
6270;DHT22;3168;51.684;6.954;2023-02-28T16:37:17;5.30;1.00
6270;DHT22;3168;51.684;6.954;2023-02-28T16:39:43;5.10;1.00
6270;DHT22;3168;51.684;6.954;2023-02-28T16:42:14;5.00;1.00
6270;DHT22;3168;51.684;6.954;2023-02-28T16:44:36;4.90;1.00
6270;DHT22;3168;51.684;6.954;2023-02-28T16:47:03;4.80;1.00
6270;DHT22;3168;51.684;6.954;2023-02-28T16:49:28;4.70;1.00